createdAt,value
2017-12-04T00:00:27.368Z,0.00
2017-12-04T00:01:28.409Z,0.00
2017-12-04T00:03:21.929Z,0.00
2017-12-04T00:04:21.997Z,0.00
2017-12-04T00:06:14.313Z,0.00
2017-12-04T00:07:15.523Z,0.00
2017-12-04T00:09:09.044Z,0.00
2017-12-04T00:10:09.058Z,0.00
2017-12-04T00:12:16.394Z,0.00
2017-12-04T00:13:02.603Z,0.00
2017-12-04T00:14:56.106Z,0.00
2017-12-04T00:15:56.148Z,0.00
2017-12-04T00:17:48.800Z,0.00
2017-12-04T00:18:49.696Z,0.00
2017-12-04T00:20:49.674Z,0.00
2017-12-04T00:21:42.406Z,0.00
2017-12-04T00:23:37.419Z,0.00
2017-12-04T00:24:35.883Z,0.00
2017-12-04T00:26:29.500Z,0.00
2017-12-04T00:27:30.373Z,0.00
2017-12-04T00:29:23.017Z,0.00
2017-12-04T00:30:23.943Z,0.00
2017-12-04T00:32:17.493Z,0.00
2017-12-04T00:33:17.026Z,0.00
2017-12-04T00:35:10.203Z,0.00
2017-12-04T00:36:11.045Z,0.00
2017-12-04T00:38:02.515Z,0.00
2017-12-04T00:39:04.615Z,0.00
2017-12-04T00:40:57.305Z,0.00
2017-12-04T00:41:58.177Z,0.00
2017-12-04T00:43:51.102Z,0.00
2017-12-04T00:44:51.724Z,0.00
2017-12-04T00:46:44.093Z,0.00
2017-12-04T00:47:45.314Z,0.00
2017-12-04T00:49:38.882Z,0.00
2017-12-04T00:50:38.862Z,0.00
2017-12-04T00:52:31.578Z,0.00
2017-12-04T00:53:32.387Z,0.00
2017-12-04T00:55:25.856Z,0.00
2017-12-04T00:56:25.927Z,0.00
2017-12-04T00:58:22.129Z,0.00
2017-12-04T00:59:19.495Z,0.00
2017-12-04T01:01:13.077Z,0.00
2017-12-04T01:02:13.476Z,0.00
2017-12-04T01:04:05.573Z,0.00
2017-12-04T01:05:06.672Z,0.00
2017-12-04T01:07:00.158Z,0.00
2017-12-04T01:08:00.150Z,0.00
2017-12-04T01:09:52.819Z,0.00
2017-12-04T01:10:52.991Z,0.00
2017-12-04T01:12:44.399Z,0.00
2017-12-04T01:13:47.253Z,0.00
2017-12-04T01:15:39.030Z,0.00
2017-12-04T01:16:40.433Z,0.00
2017-12-04T01:18:36.227Z,0.00
2017-12-04T01:19:34.379Z,0.00
2017-12-04T01:21:27.049Z,0.00
2017-12-04T01:22:27.937Z,0.00
2017-12-04T01:24:25.500Z,0.00
2017-12-04T01:25:21.581Z,0.00
2017-12-04T01:27:14.408Z,0.00
2017-12-04T01:28:15.060Z,0.00
2017-12-04T01:30:07.390Z,0.00
2017-12-04T01:31:08.637Z,0.00
2017-12-04T01:33:01.274Z,0.00
2017-12-04T01:34:01.241Z,0.00
2017-12-04T01:35:54.886Z,0.00
2017-12-04T01:36:55.756Z,0.00
2017-12-04T01:38:49.313Z,0.00
2017-12-04T01:39:49.268Z,0.00
2017-12-04T01:41:41.911Z,0.00
2017-12-04T01:42:42.860Z,0.00
2017-12-04T01:44:35.255Z,0.00
2017-12-04T01:45:36.274Z,0.00
2017-12-04T01:47:29.094Z,0.00
2017-12-04T01:48:29.976Z,0.00
2017-12-04T01:50:21.936Z,0.00
2017-12-04T01:51:23.572Z,0.00
2017-12-04T01:53:16.012Z,0.00
2017-12-04T01:54:17.045Z,0.00
2017-12-04T01:56:10.601Z,0.00
2017-12-04T01:57:09.652Z,0.00
2017-12-04T01:59:03.329Z,0.00
2017-12-04T02:00:04.044Z,0.00
2017-12-04T02:01:57.734Z,0.00
2017-12-04T02:02:56.840Z,0.00
2017-12-04T02:04:50.204Z,0.00
2017-12-04T02:05:51.279Z,0.00
2017-12-04T02:07:41.977Z,0.00
2017-12-04T02:08:44.870Z,0.00
2017-12-04T02:10:37.370Z,0.00
2017-12-04T02:11:38.418Z,0.00
2017-12-04T02:13:31.950Z,0.00
2017-12-04T02:14:32.001Z,0.00
2017-12-04T02:16:24.445Z,0.00
2017-12-04T02:17:24.538Z,0.00
2017-12-04T02:19:18.970Z,0.00
2017-12-04T02:20:19.129Z,0.00
2017-12-04T02:22:11.558Z,0.00
2017-12-04T02:23:11.669Z,0.00
2017-12-04T02:25:03.275Z,0.00
2017-12-04T02:26:06.241Z,0.00
2017-12-04T02:28:00.310Z,0.00
2017-12-04T02:28:59.716Z,0.00
2017-12-04T02:30:52.230Z,0.00
2017-12-04T02:31:53.299Z,0.00
2017-12-04T02:33:46.872Z,0.00
2017-12-04T02:34:46.761Z,0.00
2017-12-04T02:36:39.326Z,0.00
2017-12-04T02:37:40.388Z,0.00
2017-12-04T02:39:33.942Z,0.00
2017-12-04T02:40:33.118Z,0.00
2017-12-04T02:42:24.843Z,0.00
2017-12-04T02:43:27.529Z,0.00
2017-12-04T02:45:20.988Z,0.00
2017-12-04T02:46:21.952Z,0.00
2017-12-04T02:48:13.596Z,0.00
2017-12-04T02:49:13.717Z,0.00
2017-12-04T02:51:08.234Z,0.00
2017-12-04T02:52:08.252Z,0.00
2017-12-04T02:54:00.657Z,0.00
2017-12-04T02:55:01.794Z,0.00
2017-12-04T02:56:55.316Z,0.00
2017-12-04T02:57:55.269Z,0.00
2017-12-04T02:59:46.057Z,0.00
2017-12-04T03:00:48.916Z,0.00
2017-12-04T03:02:41.261Z,0.00
2017-12-04T03:03:41.488Z,0.00
2017-12-04T03:05:35.052Z,0.00
2017-12-04T03:06:35.967Z,0.00
2017-12-04T03:08:30.457Z,0.00
2017-12-04T03:09:28.555Z,0.00
2017-12-04T03:11:22.200Z,0.00
2017-12-04T03:12:22.809Z,0.00
2017-12-04T03:14:15.369Z,0.00
2017-12-04T03:15:16.710Z,0.00
2017-12-04T03:17:09.098Z,0.00
2017-12-04T03:18:10.185Z,0.00
2017-12-04T03:20:03.738Z,0.00
2017-12-04T03:21:03.740Z,0.00
2017-12-04T03:22:56.491Z,0.00
2017-12-04T03:23:57.274Z,0.00
2017-12-04T03:25:50.439Z,0.00
2017-12-04T03:26:50.889Z,0.00
2017-12-04T03:28:44.429Z,0.00
2017-12-04T03:29:41.773Z,0.00
2017-12-04T03:31:36.961Z,0.00
2017-12-04T03:32:37.970Z,0.00
2017-12-04T03:34:31.601Z,0.00
2017-12-04T03:35:30.623Z,0.00
2017-12-04T03:37:24.074Z,0.00
2017-12-04T03:38:24.262Z,0.00
2017-12-04T03:40:18.633Z,0.00
2017-12-04T03:41:18.634Z,0.00
2017-12-04T03:43:12.761Z,0.00
2017-12-04T03:44:10.415Z,0.00
2017-12-04T03:46:05.557Z,0.00
2017-12-04T03:47:03.115Z,0.00
2017-12-04T03:48:58.423Z,0.00
2017-12-04T03:49:59.344Z,0.00
2017-12-04T03:51:52.897Z,0.00
2017-12-04T03:52:52.860Z,0.00
2017-12-04T03:54:45.501Z,0.00
2017-12-04T03:55:46.430Z,0.00
2017-12-04T03:57:38.335Z,0.00
2017-12-04T03:58:39.990Z,0.00
2017-12-04T04:00:30.686Z,0.00
2017-12-04T04:01:32.747Z,0.00
2017-12-04T04:03:26.207Z,0.00
2017-12-04T04:04:27.076Z,0.00
2017-12-04T04:06:17.856Z,0.00
2017-12-04T04:07:20.659Z,0.00
2017-12-04T04:09:12.929Z,0.00
2017-12-04T04:10:13.306Z,0.00
2017-12-04T04:12:06.886Z,0.00
2017-12-04T04:13:07.791Z,0.00
2017-12-04T04:14:58.409Z,0.00
2017-12-04T04:16:01.348Z,0.00
2017-12-04T04:17:53.910Z,0.00
2017-12-04T04:18:54.856Z,0.00
2017-12-04T04:20:48.453Z,0.00
2017-12-04T04:21:48.412Z,0.00
2017-12-04T04:23:41.126Z,0.00
2017-12-04T04:24:41.999Z,0.00
2017-12-04T04:26:35.514Z,0.00
2017-12-04T04:27:35.580Z,0.00
2017-12-04T04:29:28.208Z,0.00
2017-12-04T04:30:29.085Z,0.00
2017-12-04T04:32:21.567Z,0.00
2017-12-04T04:33:22.704Z,0.00
2017-12-04T04:35:15.342Z,0.00
2017-12-04T04:36:16.199Z,0.00
2017-12-04T04:38:09.754Z,0.00
2017-12-04T04:39:08.868Z,0.00
2017-12-04T04:41:02.233Z,0.00
2017-12-04T04:42:03.308Z,0.00
2017-12-04T04:43:56.074Z,0.00
2017-12-04T04:44:56.907Z,0.00
2017-12-04T04:46:47.524Z,0.00
2017-12-04T04:47:50.567Z,0.00
2017-12-04T04:49:45.492Z,0.00
2017-12-04T04:50:44.024Z,0.00
2017-12-04T04:52:37.529Z,0.00
2017-12-04T04:53:37.540Z,0.00
2017-12-04T04:55:30.202Z,0.00
2017-12-04T04:56:31.086Z,0.00
2017-12-04T04:58:24.645Z,0.00
2017-12-04T04:59:24.644Z,0.00
2017-12-04T05:01:17.151Z,0.00
2017-12-04T05:02:18.203Z,0.00
2017-12-04T05:04:11.318Z,0.00
2017-12-04T05:05:11.795Z,0.00
2017-12-04T05:07:04.453Z,0.00
2017-12-04T05:08:05.324Z,0.00
2017-12-04T05:09:58.873Z,0.00
2017-12-04T05:10:58.908Z,0.00
2017-12-04T05:12:51.564Z,0.00
2017-12-04T05:13:53.306Z,0.00
2017-12-04T05:15:45.998Z,0.00
2017-12-04T05:16:45.982Z,0.00
2017-12-04T05:18:38.680Z,0.00
2017-12-04T05:19:39.590Z,0.00
2017-12-04T05:21:31.927Z,0.00
2017-12-04T05:22:33.111Z,0.00
2017-12-04T05:24:25.776Z,0.00
2017-12-04T05:25:26.664Z,0.00
2017-12-04T05:27:19.181Z,0.00
2017-12-04T05:28:20.222Z,0.00
2017-12-04T05:30:13.823Z,0.00
2017-12-04T05:31:13.786Z,0.00
2017-12-04T05:33:06.459Z,0.00
2017-12-04T05:34:07.335Z,0.00
2017-12-04T05:36:00.515Z,0.00
2017-12-04T05:37:00.907Z,0.00
2017-12-04T05:38:51.539Z,0.00
2017-12-04T05:39:54.447Z,0.00
2017-12-04T05:41:47.141Z,0.00
2017-12-04T05:42:48.069Z,0.00
2017-12-04T05:44:41.558Z,0.00
2017-12-04T05:45:41.585Z,0.00
2017-12-04T05:47:34.246Z,0.00
2017-12-04T05:48:35.114Z,0.00
2017-12-04T05:50:27.664Z,0.00
2017-12-04T05:51:28.716Z,0.00
2017-12-04T05:53:22.223Z,0.00
2017-12-04T05:54:22.256Z,0.00
2017-12-04T05:56:13.011Z,0.00
2017-12-04T05:57:15.839Z,0.00
2017-12-04T05:59:08.285Z,0.00
2017-12-04T06:00:09.352Z,0.00
2017-12-04T06:02:00.970Z,0.00
2017-12-04T06:03:02.891Z,0.00
2017-12-04T06:04:55.552Z,0.00
2017-12-04T06:05:56.509Z,0.00
2017-12-04T06:07:50.004Z,0.00
2017-12-04T06:08:50.047Z,0.00
2017-12-04T06:10:42.733Z,0.00
2017-12-04T06:11:43.525Z,0.00
2017-12-04T06:13:34.327Z,0.00
2017-12-04T06:14:37.157Z,0.00
2017-12-04T06:16:30.684Z,0.00
2017-12-04T06:17:30.757Z,0.00
2017-12-04T06:19:23.335Z,0.00
2017-12-04T06:20:24.275Z,0.00
2017-12-04T06:22:17.837Z,0.00
2017-12-04T06:23:17.864Z,0.00
2017-12-04T06:25:10.430Z,0.00
2017-12-04T06:26:11.348Z,0.00
2017-12-04T06:28:04.921Z,0.00
2017-12-04T06:29:04.022Z,0.00
2017-12-04T06:30:57.561Z,0.00
2017-12-04T06:31:58.456Z,0.00
2017-12-04T06:33:51.911Z,0.00
2017-12-04T06:34:52.018Z,0.00
2017-12-04T06:36:44.725Z,0.00
2017-12-04T06:37:45.623Z,0.00
2017-12-04T06:39:39.141Z,0.00
2017-12-04T06:40:39.137Z,4.00
2017-12-04T06:42:31.786Z,4.00
2017-12-04T06:43:30.750Z,4.00
2017-12-04T06:45:26.254Z,4.00
2017-12-04T06:46:26.245Z,0.00
2017-12-04T06:48:18.882Z,4.00
2017-12-04T06:49:19.787Z,4.00
2017-12-04T06:51:13.350Z,8.00
2017-12-04T06:52:13.343Z,8.00
2017-12-04T06:54:05.835Z,12.00
2017-12-04T06:55:06.910Z,8.00
2017-12-04T06:57:00.491Z,12.00
2017-12-04T06:58:00.472Z,16.00
2017-12-04T06:59:52.956Z,16.00
2017-12-04T07:00:54.102Z,24.00
2017-12-04T07:02:47.437Z,28.00
2017-12-04T07:03:47.622Z,32.00
2017-12-04T07:05:40.325Z,44.00
2017-12-04T07:06:41.147Z,64.00
2017-12-04T07:08:34.610Z,60.00
2017-12-04T07:09:34.698Z,76.00
2017-12-04T07:11:27.368Z,116.00
2017-12-04T07:12:28.284Z,120.00
2017-12-04T07:14:20.747Z,124.00
2017-12-04T07:15:21.809Z,128.00
2017-12-04T07:17:15.403Z,176.00
2017-12-04T07:18:12.704Z,200.00
2017-12-04T07:20:08.031Z,240.00
2017-12-04T07:21:08.962Z,296.00
2017-12-04T07:23:01.599Z,408.00
2017-12-04T07:24:02.480Z,416.00
2017-12-04T07:25:56.080Z,416.00
2017-12-04T07:26:56.071Z,436.00
2017-12-04T07:28:48.550Z,464.00
2017-12-04T07:29:49.630Z,496.00
2017-12-04T07:31:43.188Z,532.00
2017-12-04T07:32:43.198Z,500.00
2017-12-04T07:34:35.849Z,464.00
2017-12-04T07:35:34.713Z,452.00
2017-12-04T07:37:30.346Z,444.00
2017-12-04T07:38:30.309Z,516.00
2017-12-04T07:40:22.772Z,404.00
2017-12-04T07:41:23.861Z,448.00
2017-12-04T07:43:16.470Z,608.00
2017-12-04T07:44:17.441Z,636.00
2017-12-04T07:46:10.088Z,608.00
2017-12-04T07:47:10.324Z,548.00
2017-12-04T07:49:03.659Z,776.00
2017-12-04T07:50:04.483Z,904.00
2017-12-04T07:51:57.185Z,1076.00
2017-12-04T07:52:56.258Z,1144.00
2017-12-04T07:54:50.537Z,1024.00
2017-12-04T07:55:51.601Z,932.00
2017-12-04T07:57:44.274Z,828.00
2017-12-04T07:58:45.170Z,688.00
2017-12-04T08:00:38.764Z,668.00
2017-12-04T08:01:38.724Z,676.00
2017-12-04T08:03:31.256Z,1004.00
2017-12-04T08:04:31.433Z,1012.00
2017-12-04T08:06:25.928Z,932.00
2017-12-04T08:07:25.882Z,948.00
2017-12-04T08:09:19.982Z,1216.00
2017-12-04T08:10:19.413Z,1088.00
2017-12-04T08:12:11.949Z,1248.00
2017-12-04T08:13:12.998Z,1576.00
2017-12-04T08:15:06.514Z,2264.00
2017-12-04T08:16:06.533Z,2024.00
2017-12-04T08:17:59.023Z,2256.00
2017-12-04T08:19:00.224Z,2640.00
2017-12-04T08:20:53.638Z,2068.00
2017-12-04T08:21:53.625Z,1972.00
2017-12-04T08:23:46.103Z,2320.00
2017-12-04T08:24:47.220Z,2176.00
2017-12-04T08:26:39.640Z,2308.00
2017-12-04T08:27:40.738Z,2288.00
2017-12-04T08:29:34.267Z,1964.00
2017-12-04T08:30:34.288Z,1796.00
2017-12-04T08:32:25.656Z,2212.00
2017-12-04T08:33:27.894Z,2140.00
2017-12-04T08:35:20.427Z,2480.00
2017-12-04T08:36:20.757Z,2252.00
2017-12-04T08:38:13.419Z,2268.00
2017-12-04T08:39:14.970Z,2192.00
2017-12-04T08:41:07.670Z,2656.00
2017-12-04T08:42:08.522Z,2284.00
2017-12-04T08:44:02.119Z,1736.00
2017-12-04T08:45:02.080Z,1468.00
2017-12-04T08:46:54.508Z,1168.00
2017-12-04T08:48:01.463Z,1064.00
2017-12-04T08:49:47.381Z,1100.00
2017-12-04T08:50:49.200Z,904.00
2017-12-04T08:52:42.761Z,1008.00
2017-12-04T08:53:42.792Z,892.00
2017-12-04T08:55:35.258Z,900.00
2017-12-04T08:56:36.314Z,908.00
2017-12-04T08:58:29.717Z,936.00
2017-12-04T08:59:29.944Z,844.00
2017-12-04T09:01:22.544Z,1348.00
2017-12-04T09:02:23.465Z,1624.00
2017-12-04T09:04:17.019Z,2024.00
2017-12-04T09:05:14.373Z,2472.00
2017-12-04T09:07:09.664Z,3428.00
2017-12-04T09:08:10.584Z,3136.00
2017-12-04T09:10:03.234Z,3044.00
2017-12-04T09:11:03.413Z,3428.00
2017-12-04T09:12:56.777Z,4600.00
2017-12-04T09:13:57.696Z,4476.00
2017-12-04T09:15:51.285Z,3732.00
2017-12-04T09:16:51.244Z,5016.00
2017-12-04T09:18:43.860Z,3864.00
2017-12-04T09:19:44.805Z,3604.00
2017-12-04T09:21:38.360Z,4228.00
2017-12-04T09:22:37.770Z,4272.00
2017-12-04T09:24:30.993Z,4036.00
2017-12-04T09:25:31.925Z,4408.00
2017-12-04T09:27:24.567Z,4304.00
2017-12-04T09:28:25.432Z,4352.00
2017-12-04T09:30:18.117Z,4352.00
2017-12-04T09:31:19.041Z,6004.00
2017-12-04T09:33:11.420Z,6472.00
2017-12-04T09:34:12.599Z,5892.00
2017-12-04T09:36:05.323Z,5616.00
2017-12-04T09:37:06.157Z,5884.00
2017-12-04T09:38:59.714Z,5480.00
2017-12-04T09:39:57.068Z,5556.00
2017-12-04T09:41:52.207Z,4400.00
2017-12-04T09:42:53.310Z,5408.00
2017-12-04T09:44:46.806Z,10016.00
2017-12-04T09:45:46.862Z,12788.00
2017-12-04T09:47:40.970Z,10632.00
2017-12-04T09:48:40.349Z,10520.00
2017-12-04T09:50:33.937Z,7004.00
2017-12-04T09:51:33.995Z,3724.00
2017-12-04T09:53:26.686Z,4540.00
2017-12-04T09:54:27.507Z,5412.00
2017-12-04T09:56:21.013Z,6288.00
2017-12-04T09:57:19.017Z,6524.00
2017-12-04T09:59:13.709Z,6720.00
2017-12-04T10:00:14.622Z,6300.00
2017-12-04T10:02:08.179Z,5620.00
2017-12-04T10:03:08.139Z,4552.00
2017-12-04T10:05:00.650Z,3248.00
2017-12-04T10:06:01.755Z,3640.00
2017-12-04T10:07:54.385Z,5224.00
2017-12-04T10:08:55.469Z,3800.00
2017-12-04T10:10:48.845Z,4692.00
2017-12-04T10:11:48.015Z,8396.00
2017-12-04T10:13:41.338Z,10500.00
2017-12-04T10:14:42.414Z,10476.00
2017-12-04T10:16:35.826Z,10032.00
2017-12-04T10:17:35.984Z,8800.00
2017-12-04T10:19:26.666Z,9332.00
2017-12-04T10:20:29.537Z,9832.00
2017-12-04T10:22:20.263Z,8032.00
2017-12-04T10:23:23.044Z,6472.00
2017-12-04T10:25:15.615Z,5860.00
2017-12-04T10:26:16.612Z,5532.00
2017-12-04T10:28:09.268Z,8204.00
2017-12-04T10:29:10.211Z,7392.00
2017-12-04T10:31:02.807Z,8788.00
2017-12-04T10:32:03.771Z,10184.00
2017-12-04T10:33:57.314Z,7832.00
2017-12-04T10:34:57.302Z,7368.00
2017-12-04T10:36:51.425Z,6312.00
2017-12-04T10:37:51.318Z,7220.00
2017-12-04T10:39:41.546Z,7412.00
2017-12-04T10:40:44.440Z,6884.00
2017-12-04T10:42:36.905Z,5404.00
2017-12-04T10:43:37.965Z,5484.00
2017-12-04T10:45:30.630Z,5332.00
2017-12-04T10:46:31.519Z,6920.00
2017-12-04T10:48:24.197Z,6384.00
2017-12-04T10:49:25.079Z,5032.00
2017-12-04T10:51:17.741Z,4632.00
2017-12-04T10:52:17.892Z,6228.00
2017-12-04T10:54:12.120Z,6344.00
2017-12-04T10:55:12.193Z,7044.00
2017-12-04T10:57:03.052Z,7648.00
2017-12-04T10:58:05.792Z,7280.00
2017-12-04T10:59:58.467Z,6240.00
2017-12-04T11:00:57.721Z,5060.00
2017-12-04T11:02:52.870Z,4180.00
2017-12-04T11:03:52.873Z,4828.00
2017-12-04T11:05:48.922Z,7568.00
2017-12-04T11:06:46.425Z,6584.00
2017-12-04T11:08:39.068Z,6868.00
2017-12-04T11:09:39.042Z,7388.00
2017-12-04T11:11:33.573Z,7648.00
2017-12-04T11:12:32.573Z,7848.00
2017-12-04T11:14:26.026Z,8508.00
2017-12-04T11:15:28.004Z,8528.00
2017-12-04T11:17:20.836Z,7852.00
2017-12-04T11:18:20.726Z,7424.00
2017-12-04T11:20:13.362Z,5816.00
2017-12-04T11:21:14.254Z,6376.00
2017-12-04T11:23:07.817Z,7456.00
2017-12-04T11:24:07.857Z,5500.00
2017-12-04T11:26:00.523Z,4420.00
2017-12-04T11:26:58.823Z,4380.00
2017-12-04T11:28:55.169Z,5384.00
2017-12-04T11:29:54.914Z,5556.00
2017-12-04T11:31:48.926Z,4672.00
2017-12-04T11:32:48.487Z,4080.00
2017-12-04T11:34:41.836Z,4416.00
2017-12-04T11:35:42.081Z,4372.00
2017-12-04T11:37:34.684Z,6116.00
2017-12-04T11:39:48.905Z,5520.00
2017-12-04T11:42:01.475Z,6592.00
2017-12-04T11:43:01.920Z,6516.00
2017-12-04T11:44:55.924Z,7448.00
2017-12-04T11:45:55.942Z,7860.00
2017-12-04T11:47:48.466Z,9248.00
2017-12-04T11:50:02.942Z,7360.00
2017-12-04T11:51:02.932Z,9624.00
2017-12-04T11:52:55.533Z,10284.00
2017-12-04T11:55:08.764Z,6336.00
2017-12-04T11:56:09.883Z,5496.00
2017-12-04T11:58:07.859Z,4520.00
2017-12-04T11:59:03.447Z,3892.00
2017-12-04T12:00:56.931Z,4960.00
2017-12-04T12:03:31.256Z,4508.00
2017-12-04T12:05:03.709Z,4328.00
2017-12-04T12:06:03.720Z,4316.00
2017-12-04T12:07:56.649Z,4180.00
2017-12-04T12:08:57.280Z,3896.00
2017-12-04T12:10:50.866Z,6312.00
2017-12-04T12:11:50.834Z,6476.00
2017-12-04T12:13:43.504Z,6556.00
2017-12-04T12:14:44.400Z,6876.00
2017-12-04T12:16:37.938Z,8648.00
2017-12-04T12:17:37.949Z,9516.00
2017-12-04T12:19:30.488Z,10564.00
2017-12-04T12:20:30.605Z,10336.00
2017-12-04T12:22:24.193Z,9296.00
2017-12-04T12:23:25.193Z,8268.00
2017-12-04T12:25:18.677Z,5608.00
2017-12-04T12:26:18.709Z,6200.00
2017-12-04T12:28:11.455Z,8552.00
2017-12-04T12:29:12.239Z,8652.00
2017-12-04T12:31:05.758Z,5960.00
2017-12-04T12:32:05.746Z,4624.00
2017-12-04T12:33:58.308Z,4976.00
2017-12-04T12:34:59.365Z,5228.00
2017-12-04T12:36:50.890Z,4108.00
2017-12-04T12:37:52.889Z,4080.00
2017-12-04T12:39:45.569Z,4932.00
2017-12-04T12:40:46.477Z,7060.00
2017-12-04T12:42:59.956Z,6764.00
2017-12-04T12:44:33.123Z,4660.00
2017-12-04T12:45:33.347Z,3176.00
2017-12-04T12:47:26.003Z,2228.00
2017-12-04T12:48:26.844Z,2084.00
2017-12-04T12:50:20.388Z,1964.00
2017-12-04T12:51:19.911Z,1548.00
2017-12-04T12:53:12.898Z,1148.00
2017-12-04T12:54:11.340Z,1316.00
2017-12-04T12:56:07.528Z,1952.00
2017-12-04T12:57:07.569Z,1920.00
2017-12-04T12:59:03.789Z,1800.00
2017-12-04T13:00:01.104Z,1952.00
2017-12-04T13:01:58.653Z,2584.00
2017-12-04T13:02:55.614Z,3012.00
2017-12-04T13:04:46.062Z,3400.00
2017-12-04T13:05:48.296Z,4356.00
2017-12-04T13:07:41.818Z,7936.00
2017-12-04T13:08:41.753Z,7204.00
2017-12-04T13:10:34.403Z,4720.00
2017-12-04T13:11:35.324Z,3384.00
2017-12-04T13:13:27.953Z,2428.00
2017-12-04T13:15:42.309Z,3652.00
2017-12-04T13:16:42.319Z,3556.00
2017-12-04T13:18:54.115Z,4392.00
2017-12-04T13:19:35.037Z,4020.00
2017-12-04T13:21:43.750Z,4956.00
2017-12-04T13:22:29.413Z,4784.00
2017-12-04T13:24:38.270Z,3576.00
2017-12-04T13:25:22.963Z,3608.00
2017-12-04T13:27:14.327Z,4524.00
2017-12-04T13:28:16.543Z,4504.00
2017-12-04T13:30:10.097Z,6396.00
2017-12-04T13:31:09.249Z,6964.00
2017-12-04T13:34:34.487Z,7088.00
2017-12-04T13:37:09.252Z,7840.00
2017-12-04T13:41:47.691Z,7164.00
2017-12-04T13:42:46.875Z,5836.00
2017-12-04T13:44:40.425Z,6708.00
2017-12-04T13:45:40.423Z,4688.00
2017-12-04T13:47:31.167Z,4860.00
2017-12-04T13:48:33.986Z,4972.00
2017-12-04T13:50:25.198Z,5000.00
2017-12-04T13:51:27.546Z,4836.00
2017-12-04T13:53:21.197Z,5164.00
2017-12-04T13:54:21.139Z,5324.00
2017-12-04T13:56:16.980Z,5464.00
2017-12-04T13:57:14.550Z,5296.00
2017-12-04T13:59:07.349Z,4852.00
2017-12-04T14:00:09.165Z,4712.00
2017-12-04T14:01:59.358Z,4384.00
2017-12-04T14:04:15.178Z,2556.00
2017-12-04T14:05:15.222Z,1832.00
2017-12-04T14:07:07.928Z,1472.00
2017-12-04T14:08:08.784Z,1484.00
2017-12-04T14:10:01.675Z,1016.00
2017-12-04T14:11:00.875Z,1256.00
2017-12-04T14:12:56.043Z,1860.00
2017-12-04T14:13:54.404Z,3316.00
2017-12-04T14:15:49.416Z,4852.00
2017-12-04T14:16:49.528Z,4632.00
2017-12-04T14:18:43.100Z,3792.00
2017-12-04T14:19:43.054Z,3568.00
2017-12-04T14:21:36.000Z,3132.00
2017-12-04T14:22:36.608Z,3092.00
2017-12-04T14:24:30.174Z,2676.00
2017-12-04T14:25:30.329Z,2744.00
2017-12-04T14:27:22.831Z,3532.00
2017-12-04T14:28:23.787Z,3292.00
2017-12-04T14:30:17.288Z,2564.00
2017-12-04T14:31:17.296Z,2468.00
2017-12-04T14:33:08.099Z,2336.00
2017-12-04T14:34:09.895Z,2260.00
2017-12-04T14:36:04.358Z,1872.00
2017-12-04T14:37:04.433Z,1644.00
2017-12-04T14:38:57.453Z,1436.00
2017-12-04T14:39:58.078Z,1400.00
2017-12-04T14:41:51.508Z,1564.00
2017-12-04T14:42:51.587Z,1540.00
2017-12-04T14:44:44.202Z,1272.00
2017-12-04T14:45:45.237Z,1024.00
2017-12-04T14:47:38.586Z,1128.00
2017-12-04T14:48:38.607Z,1004.00
2017-12-04T14:50:29.695Z,772.00
2017-12-04T14:51:32.269Z,680.00
2017-12-04T14:53:25.985Z,568.00
2017-12-04T14:54:25.776Z,576.00
2017-12-04T14:56:18.488Z,632.00
2017-12-04T14:57:19.299Z,676.00
2017-12-04T14:59:12.826Z,732.00
2017-12-04T15:00:12.840Z,748.00
2017-12-04T15:02:05.534Z,768.00
2017-12-04T15:03:06.401Z,772.00
2017-12-04T15:04:59.924Z,760.00
2017-12-04T15:05:58.306Z,740.00
2017-12-04T15:07:52.337Z,720.00
2017-12-04T15:10:06.932Z,704.00
2017-12-04T15:11:06.896Z,688.00
2017-12-04T15:12:57.795Z,660.00
2017-12-04T15:14:00.998Z,644.00
2017-12-04T15:15:53.127Z,596.00
2017-12-04T15:16:54.041Z,580.00
2017-12-04T15:18:47.544Z,540.00
2017-12-04T15:19:47.566Z,516.00
2017-12-04T15:21:40.025Z,460.00
2017-12-04T15:22:41.238Z,436.00
2017-12-04T15:24:34.696Z,384.00
2017-12-04T15:25:32.025Z,360.00
2017-12-04T15:27:25.385Z,316.00
2017-12-04T15:28:28.263Z,296.00
2017-12-04T15:30:24.796Z,256.00
2017-12-04T15:31:21.777Z,232.00
2017-12-04T15:33:15.158Z,188.00
2017-12-04T15:34:15.383Z,168.00
2017-12-04T15:36:08.886Z,136.00
2017-12-04T15:37:08.733Z,120.00
2017-12-04T15:39:02.295Z,88.00
2017-12-04T15:40:02.476Z,76.00
2017-12-04T15:41:56.682Z,60.00
2017-12-04T15:42:53.411Z,52.00
2017-12-04T15:44:49.599Z,40.00
2017-12-04T15:45:49.601Z,32.00
2017-12-04T15:47:42.335Z,24.00
2017-12-04T15:48:43.172Z,24.00
2017-12-04T15:50:36.739Z,16.00
2017-12-04T15:51:36.710Z,16.00
2017-12-04T15:53:29.348Z,12.00
2017-12-04T15:54:30.271Z,8.00
2017-12-04T15:56:22.845Z,8.00
2017-12-04T15:57:23.871Z,8.00
2017-12-04T15:59:17.201Z,8.00
2017-12-04T16:00:15.358Z,4.00
2017-12-04T16:02:10.341Z,4.00
2017-12-04T16:03:10.970Z,0.00
2017-12-04T16:05:08.181Z,0.00
2017-12-04T16:06:02.948Z,0.00
2017-12-04T16:07:58.042Z,4.00
2017-12-04T16:08:58.029Z,4.00
2017-12-04T16:10:50.773Z,0.00
2017-12-04T16:11:51.612Z,0.00
2017-12-04T16:13:43.906Z,0.00
2017-12-04T16:14:45.174Z,0.00
2017-12-04T16:16:38.657Z,0.00
2017-12-04T16:17:38.298Z,0.00
2017-12-04T16:19:31.358Z,0.00
2017-12-04T16:20:32.252Z,0.00
2017-12-04T16:22:24.962Z,0.00
2017-12-04T16:23:25.121Z,0.00
2017-12-04T16:25:18.521Z,0.00
2017-12-04T16:26:18.630Z,0.00
2017-12-04T16:28:11.867Z,0.00
2017-12-04T16:29:13.824Z,0.00
2017-12-04T16:31:03.687Z,0.00
2017-12-04T16:32:06.038Z,0.00
2017-12-04T16:33:59.119Z,0.00
2017-12-04T16:35:00.038Z,0.00
2017-12-04T16:36:53.526Z,0.00
2017-12-04T16:37:53.684Z,0.00
2017-12-04T16:39:46.210Z,0.00
2017-12-04T16:40:47.214Z,0.00
2017-12-04T16:42:40.743Z,0.00
2017-12-04T16:43:40.787Z,0.00
2017-12-04T16:45:33.412Z,0.00
2017-12-04T16:46:34.354Z,0.00
2017-12-04T16:48:27.946Z,0.00
2017-12-04T16:49:27.889Z,0.00
2017-12-04T16:51:22.015Z,0.00
2017-12-04T16:52:21.491Z,0.00
2017-12-04T16:54:15.024Z,0.00
2017-12-04T16:55:14.148Z,0.00
2017-12-04T16:57:07.695Z,0.00
2017-12-04T16:58:08.756Z,0.00
2017-12-04T17:00:01.409Z,0.00
2017-12-04T17:01:02.206Z,0.00
2017-12-04T17:02:54.789Z,0.00
2017-12-04T17:03:55.656Z,0.00
2017-12-04T17:05:56.346Z,0.00
2017-12-04T17:06:50.093Z,0.00
2017-12-04T17:08:42.246Z,0.00
2017-12-04T17:09:45.462Z,0.00
2017-12-04T17:11:36.285Z,0.00
2017-12-04T17:12:34.572Z,0.00
2017-12-04T17:14:29.166Z,0.00
2017-12-04T17:15:29.153Z,0.00
2017-12-04T17:17:23.279Z,0.00
2017-12-04T17:18:23.390Z,0.00
2017-12-04T17:20:17.582Z,0.00
2017-12-04T17:21:17.015Z,0.00
2017-12-04T17:23:10.508Z,0.00
2017-12-04T17:24:10.510Z,0.00
2017-12-04T17:26:16.868Z,0.00
2017-12-04T17:27:03.035Z,0.00
2017-12-04T17:28:57.646Z,0.00
2017-12-04T17:29:55.627Z,0.00
2017-12-04T17:31:50.320Z,0.00
2017-12-04T17:34:04.645Z,0.00
2017-12-04T17:35:04.576Z,0.00
2017-12-04T17:36:57.274Z,0.00
2017-12-04T17:38:03.833Z,0.00
2017-12-04T17:39:48.825Z,0.00
2017-12-04T17:40:51.688Z,0.00
2017-12-04T17:42:44.576Z,0.00
2017-12-04T17:43:45.294Z,0.00
2017-12-04T17:45:38.832Z,0.00
2017-12-04T17:46:38.806Z,0.00
2017-12-04T17:48:31.472Z,0.00
2017-12-04T17:49:32.401Z,0.00
2017-12-04T17:51:25.936Z,0.00
2017-12-04T17:52:25.962Z,0.00
2017-12-04T17:54:18.541Z,0.00
2017-12-04T17:55:19.534Z,0.00
2017-12-04T17:57:11.037Z,0.00
2017-12-04T17:58:13.119Z,0.00
2017-12-04T18:00:05.533Z,0.00
2017-12-04T18:01:04.839Z,0.00
2017-12-04T18:02:59.517Z,0.00
2017-12-04T18:04:00.143Z,0.00
2017-12-04T18:05:53.641Z,0.00
2017-12-04T18:06:53.742Z,0.00
2017-12-04T18:08:46.224Z,0.00
2017-12-04T18:09:45.269Z,0.00
2017-12-04T18:11:39.941Z,0.00
2017-12-04T18:12:40.849Z,0.00
2017-12-04T18:14:34.387Z,0.00
2017-12-04T18:15:34.379Z,0.00
2017-12-04T18:17:27.268Z,0.00
2017-12-04T18:18:27.939Z,0.00
2017-12-04T18:20:21.617Z,0.00
2017-12-04T18:21:21.529Z,0.00
2017-12-04T18:23:14.065Z,0.00
2017-12-04T18:24:14.279Z,0.00
2017-12-04T18:26:08.676Z,0.00
2017-12-04T18:27:05.949Z,0.00
2017-12-04T18:29:01.335Z,0.00
2017-12-04T18:30:02.172Z,0.00
2017-12-04T18:31:54.073Z,0.00
2017-12-04T18:32:55.739Z,0.00
2017-12-04T18:34:48.474Z,0.00
2017-12-04T18:35:49.311Z,0.00
2017-12-04T18:37:41.748Z,0.00
2017-12-04T18:38:42.842Z,0.00
2017-12-04T18:40:35.484Z,0.00